createdAt,value
2018-07-05T00:00:36.564Z,99.99
2018-07-05T00:01:36.595Z,99.99
2018-07-05T00:02:36.632Z,99.99
2018-07-05T00:03:36.667Z,99.99
2018-07-05T00:04:36.703Z,99.99
2018-07-05T00:05:36.741Z,99.99
2018-07-05T00:06:36.777Z,99.99
2018-07-05T00:07:36.812Z,99.99
2018-07-05T00:08:36.848Z,99.99
2018-07-05T00:09:36.885Z,99.99
2018-07-05T00:10:36.921Z,99.99
2018-07-05T00:11:36.958Z,99.99
2018-07-05T00:12:36.992Z,99.99
2018-07-05T00:13:37.029Z,99.99
2018-07-05T00:14:37.066Z,99.99
2018-07-05T00:15:37.102Z,99.99
2018-07-05T00:16:37.137Z,99.99
2018-07-05T00:17:37.174Z,99.99
2018-07-05T00:18:37.211Z,99.99
2018-07-05T00:19:37.246Z,99.99
2018-07-05T00:20:37.281Z,99.99
2018-07-05T00:21:37.317Z,99.99
2018-07-05T00:22:37.354Z,99.99
2018-07-05T00:23:37.391Z,99.99
2018-07-05T00:24:37.425Z,99.99
2018-07-05T00:25:37.460Z,99.99
2018-07-05T00:26:37.499Z,99.99
2018-07-05T00:27:37.534Z,99.99
2018-07-05T00:28:37.571Z,99.99
2018-07-05T00:29:37.605Z,99.99
2018-07-05T00:30:37.642Z,99.99
2018-07-05T00:31:37.679Z,99.99
2018-07-05T00:32:37.713Z,99.99
2018-07-05T00:33:37.751Z,99.99
2018-07-05T00:34:37.786Z,99.99
2018-07-05T00:35:37.821Z,99.99
2018-07-05T00:36:37.856Z,99.99
2018-07-05T00:37:37.893Z,99.99
2018-07-05T00:38:37.933Z,99.99
2018-07-05T00:39:37.965Z,99.99
2018-07-05T00:40:37.999Z,99.99
2018-07-05T00:41:38.036Z,99.99
2018-07-05T00:42:38.072Z,99.99
2018-07-05T00:43:38.113Z,99.99
2018-07-05T00:44:38.145Z,99.99
2018-07-05T00:45:38.180Z,99.99
2018-07-05T00:46:38.216Z,99.99
2018-07-05T00:47:38.252Z,99.99
2018-07-05T00:48:38.287Z,99.99
2018-07-05T00:49:38.324Z,99.99
2018-07-05T00:50:38.360Z,99.99
2018-07-05T00:51:38.395Z,99.99
2018-07-05T00:52:38.431Z,99.99
2018-07-05T00:53:38.466Z,99.99
2018-07-05T00:54:38.503Z,99.99
2018-07-05T00:55:38.539Z,99.99
2018-07-05T00:56:38.574Z,99.99
2018-07-05T00:57:38.610Z,99.99
2018-07-05T00:58:38.646Z,99.99
2018-07-05T00:59:38.682Z,99.99
2018-07-05T01:00:38.717Z,99.99
2018-07-05T01:01:38.753Z,99.99
2018-07-05T01:02:38.789Z,99.99
2018-07-05T01:03:38.825Z,99.99
2018-07-05T01:04:38.859Z,99.99
2018-07-05T01:05:38.896Z,99.99
2018-07-05T01:06:38.932Z,99.99
2018-07-05T01:07:38.967Z,99.99
2018-07-05T01:08:39.005Z,99.99
2018-07-05T01:09:39.039Z,99.99
2018-07-05T01:10:39.074Z,99.99
2018-07-05T01:11:39.110Z,99.99
2018-07-05T01:12:39.210Z,99.99
2018-07-05T01:13:39.182Z,99.99
2018-07-05T01:14:39.218Z,99.99
2018-07-05T01:15:39.288Z,99.99
2018-07-05T01:16:39.289Z,99.99
2018-07-05T01:17:39.325Z,99.99
2018-07-05T01:18:39.361Z,99.99
2018-07-05T01:19:39.396Z,99.99
2018-07-05T01:20:39.432Z,99.99
2018-07-05T01:21:39.480Z,99.99
2018-07-05T01:22:39.504Z,99.99
2018-07-05T01:23:39.540Z,99.99
2018-07-05T01:24:39.574Z,99.99
2018-07-05T01:25:39.612Z,99.99
2018-07-05T01:26:39.650Z,99.99
2018-07-05T01:27:39.684Z,99.99
2018-07-05T01:28:39.719Z,99.99
2018-07-05T01:29:39.755Z,99.99
2018-07-05T01:30:39.790Z,99.99
2018-07-05T01:31:39.827Z,99.99
2018-07-05T01:32:39.862Z,99.99
2018-07-05T01:33:39.941Z,99.99
2018-07-05T01:34:39.934Z,99.99
2018-07-05T01:35:39.973Z,99.99
2018-07-05T01:36:40.007Z,99.99
2018-07-05T01:37:40.046Z,99.99
2018-07-05T01:38:40.078Z,99.99
2018-07-05T01:39:40.114Z,99.99
2018-07-05T01:40:40.149Z,99.99
2018-07-05T01:41:40.187Z,99.99
2018-07-05T01:42:40.220Z,99.99
2018-07-05T01:43:40.257Z,99.99
2018-07-05T01:44:40.293Z,99.99
2018-07-05T01:45:40.329Z,99.99
2018-07-05T01:46:40.364Z,99.99
2018-07-05T01:47:40.401Z,99.99
2018-07-05T01:48:40.436Z,99.99
2018-07-05T01:49:40.472Z,99.99
2018-07-05T01:50:40.509Z,99.99
2018-07-05T01:51:40.545Z,99.99
2018-07-05T01:52:40.580Z,99.99
2018-07-05T01:53:40.616Z,99.99
2018-07-05T01:54:40.653Z,99.99
2018-07-05T01:55:40.688Z,99.99
2018-07-05T01:56:40.724Z,99.99
2018-07-05T01:57:40.764Z,99.99
2018-07-05T01:58:40.795Z,99.99
2018-07-05T01:59:40.832Z,99.99
2018-07-05T02:00:40.871Z,99.99
2018-07-05T02:01:40.902Z,99.99
2018-07-05T02:02:40.940Z,99.99
2018-07-05T02:03:40.976Z,99.99
2018-07-05T02:04:41.011Z,99.99
2018-07-05T02:05:41.047Z,99.99
2018-07-05T02:06:41.084Z,99.99
2018-07-05T02:07:41.120Z,99.99
2018-07-05T02:08:41.154Z,99.99
2018-07-05T02:09:41.192Z,99.99
2018-07-05T02:10:41.230Z,99.99
2018-07-05T02:11:41.264Z,99.99
2018-07-05T02:12:41.300Z,99.99
2018-07-05T02:13:41.335Z,99.99
2018-07-05T02:14:41.372Z,99.99
2018-07-05T02:15:41.409Z,99.99
2018-07-05T02:16:41.444Z,99.99
2018-07-05T02:17:41.481Z,99.99
2018-07-05T02:18:41.537Z,99.99
2018-07-05T02:19:41.553Z,99.99
2018-07-05T02:20:41.588Z,99.99
2018-07-05T02:21:41.625Z,99.99
2018-07-05T02:22:41.661Z,99.99
2018-07-05T02:23:41.697Z,99.99
2018-07-05T02:24:41.732Z,99.99
2018-07-05T02:25:41.768Z,99.99
2018-07-05T02:26:41.805Z,99.99
2018-07-05T02:27:41.841Z,99.99
2018-07-05T02:28:41.876Z,99.99
2018-07-05T02:29:41.912Z,99.99
2018-07-05T02:30:41.954Z,99.99
2018-07-05T02:31:41.985Z,99.99
2018-07-05T02:32:42.021Z,99.99
2018-07-05T02:33:42.057Z,99.99
2018-07-05T02:34:42.092Z,99.99
2018-07-05T02:35:42.139Z,99.99
2018-07-05T02:36:42.163Z,99.99
2018-07-05T02:37:42.201Z,99.99
2018-07-05T02:38:42.238Z,99.99
2018-07-05T02:39:42.273Z,99.99
2018-07-05T02:40:42.313Z,99.99
2018-07-05T02:41:42.346Z,99.99
2018-07-05T02:42:42.380Z,99.99
2018-07-05T02:43:42.417Z,99.99
2018-07-05T02:44:42.453Z,99.99
2018-07-05T02:45:42.491Z,99.99
2018-07-05T02:46:42.525Z,99.99
2018-07-05T02:47:42.561Z,99.99
2018-07-05T02:48:42.597Z,99.99
2018-07-05T02:49:42.633Z,99.99
2018-07-05T02:50:42.668Z,99.99
2018-07-05T02:51:42.704Z,99.99
2018-07-05T02:52:42.743Z,99.99
2018-07-05T02:53:42.780Z,99.99
2018-07-05T02:54:42.813Z,99.99
2018-07-05T02:55:42.847Z,99.99
2018-07-05T02:56:42.884Z,99.99
2018-07-05T02:57:42.923Z,99.99
2018-07-05T02:58:42.973Z,99.99
2018-07-05T02:59:42.992Z,99.99
2018-07-05T03:00:43.029Z,99.99
2018-07-05T03:01:43.062Z,99.99
2018-07-05T03:02:43.099Z,99.99
2018-07-05T03:03:43.136Z,99.99
2018-07-05T03:04:43.170Z,99.99
2018-07-05T03:05:43.207Z,99.99
2018-07-05T03:06:43.244Z,99.99
2018-07-05T03:07:43.279Z,99.99
2018-07-05T03:08:43.317Z,99.99
2018-07-05T03:09:43.355Z,99.99
2018-07-05T03:10:43.391Z,99.99
2018-07-05T03:11:43.424Z,99.99
2018-07-05T03:12:43.458Z,99.99
2018-07-05T03:13:43.496Z,99.99
2018-07-05T03:14:43.530Z,99.99
2018-07-05T03:15:43.568Z,99.99
2018-07-05T03:16:43.602Z,99.99
2018-07-05T03:17:43.638Z,99.99
2018-07-05T03:18:43.674Z,99.99
2018-07-05T03:19:43.710Z,99.99
2018-07-05T03:20:43.746Z,99.99
2018-07-05T03:21:43.783Z,99.99
2018-07-05T03:22:43.819Z,99.99
2018-07-05T03:23:43.855Z,99.99
2018-07-05T03:24:43.890Z,99.99
2018-07-05T03:25:43.926Z,99.99
2018-07-05T03:26:43.962Z,99.99
2018-07-05T03:27:43.997Z,99.99
2018-07-05T03:28:44.033Z,99.99
2018-07-05T03:29:44.070Z,99.99
2018-07-05T03:30:44.105Z,99.99
2018-07-05T03:31:44.141Z,99.99
2018-07-05T03:32:44.176Z,99.99
2018-07-05T03:33:44.211Z,99.99
2018-07-05T03:34:44.249Z,99.99
2018-07-05T03:35:44.293Z,99.99
2018-07-05T03:36:44.321Z,99.99
2018-07-05T03:37:44.356Z,99.99
2018-07-05T03:38:44.392Z,99.99
2018-07-05T03:39:44.427Z,99.99
2018-07-05T03:40:44.463Z,99.99
2018-07-05T03:41:44.500Z,99.99
2018-07-05T03:42:44.536Z,99.99
2018-07-05T03:43:44.576Z,99.99
2018-07-05T03:44:44.606Z,99.99
2018-07-05T03:45:44.642Z,99.99
2018-07-05T03:46:44.678Z,99.99
2018-07-05T03:47:44.715Z,99.99
2018-07-05T03:48:44.750Z,99.99
2018-07-05T03:49:44.787Z,99.99
2018-07-05T03:50:44.822Z,99.99
2018-07-05T03:51:44.860Z,99.99
2018-07-05T03:52:44.895Z,99.99
2018-07-05T03:53:44.930Z,99.99
2018-07-05T03:54:44.966Z,99.99
2018-07-05T03:55:45.002Z,99.99
2018-07-05T03:56:45.038Z,99.99
2018-07-05T03:57:45.073Z,99.99
2018-07-05T03:58:45.109Z,99.99
2018-07-05T03:59:45.145Z,99.99
2018-07-05T04:00:45.181Z,99.99
2018-07-05T04:01:45.218Z,99.99
2018-07-05T04:02:45.289Z,99.99
2018-07-05T04:03:45.290Z,99.99
2018-07-05T04:04:45.324Z,99.99
2018-07-05T04:05:45.361Z,99.99
2018-07-05T04:06:45.397Z,99.99
2018-07-05T04:07:45.432Z,99.99
2018-07-05T04:08:45.468Z,99.99
2018-07-05T04:09:45.505Z,99.99
2018-07-05T04:10:45.540Z,99.99
2018-07-05T04:11:45.576Z,99.99
2018-07-05T04:12:45.612Z,99.99
2018-07-05T04:13:45.647Z,99.99
2018-07-05T04:14:45.683Z,99.99
2018-07-05T04:15:45.766Z,99.99
2018-07-05T04:16:45.754Z,99.99
2018-07-05T04:17:45.791Z,99.99
2018-07-05T04:18:45.828Z,99.99
2018-07-05T04:19:45.865Z,99.99
2018-07-05T04:20:45.900Z,99.99
2018-07-05T04:21:45.936Z,99.99
2018-07-05T04:22:45.973Z,99.99
2018-07-05T04:23:46.007Z,99.99
2018-07-05T04:24:46.043Z,99.99
2018-07-05T04:25:46.080Z,99.99
2018-07-05T04:26:46.117Z,99.99
2018-07-05T04:27:46.153Z,99.99
2018-07-05T04:28:46.188Z,99.99
2018-07-05T04:29:46.227Z,99.99
2018-07-05T04:30:46.261Z,99.99
2018-07-05T04:31:46.296Z,99.99
2018-07-05T04:32:46.332Z,99.99
2018-07-05T04:33:46.369Z,99.99
2018-07-05T04:34:46.405Z,99.99
2018-07-05T04:35:46.441Z,99.99
2018-07-05T04:36:46.475Z,99.99
2018-07-05T04:37:46.513Z,99.99
2018-07-05T04:38:46.549Z,99.99
2018-07-05T04:39:46.587Z,99.99
2018-07-05T04:40:46.620Z,99.99
2018-07-05T04:41:46.656Z,99.99
2018-07-05T04:42:46.694Z,99.99
2018-07-05T04:43:46.730Z,99.99
2018-07-05T04:44:46.764Z,99.99
2018-07-05T04:45:46.801Z,99.99
2018-07-05T04:46:46.839Z,99.99
2018-07-05T04:47:46.882Z,99.99
2018-07-05T04:48:46.911Z,99.99
2018-07-05T04:49:46.947Z,99.99
2018-07-05T04:50:46.982Z,99.99
2018-07-05T04:51:47.023Z,99.99
2018-07-05T04:52:47.055Z,99.99
2018-07-05T04:53:47.090Z,99.99
2018-07-05T04:54:47.129Z,99.99
2018-07-05T04:55:47.164Z,99.99
2018-07-05T04:56:47.200Z,99.99
2018-07-05T04:57:47.237Z,99.99
2018-07-05T04:58:47.274Z,99.99
2018-07-05T04:59:47.310Z,99.99
2018-07-05T05:00:47.345Z,99.99
2018-07-05T05:01:47.382Z,99.99
2018-07-05T05:02:47.422Z,99.99
2018-07-05T05:03:47.456Z,99.99
2018-07-05T05:04:47.491Z,99.99
2018-07-05T05:05:47.529Z,99.99
2018-07-05T05:06:47.565Z,99.99
2018-07-05T05:07:47.602Z,99.99
2018-07-05T05:08:47.675Z,99.99
2018-07-05T05:09:47.674Z,99.99
2018-07-05T05:10:47.710Z,99.99
2018-07-05T05:11:47.766Z,99.99
2018-07-05T05:12:47.784Z,99.99
2018-07-05T05:13:47.822Z,99.99
2018-07-05T05:14:47.879Z,99.99
2018-07-05T05:15:47.909Z,99.99
2018-07-05T05:16:47.947Z,99.99
2018-07-05T05:17:47.966Z,99.99
2018-07-05T05:20:48.807Z,99.99
2018-07-05T05:24:48.450Z,99.99
2018-07-05T05:25:48.285Z,99.99
2018-07-05T05:26:48.322Z,99.99
2018-07-05T05:28:49.202Z,99.99
2018-07-05T05:30:48.465Z,99.99
2018-07-05T05:31:48.705Z,99.99
2018-07-05T05:32:48.942Z,99.99
2018-07-05T05:33:48.783Z,99.99
2018-07-05T05:34:48.617Z,99.99
2018-07-05T05:35:49.061Z,99.99
2018-07-05T05:36:48.687Z,99.99
2018-07-05T05:37:48.706Z,99.99
2018-07-05T05:45:49.003Z,99.99
2018-07-05T05:46:49.042Z,99.99
2018-07-05T05:47:49.079Z,99.99
2018-07-05T05:48:49.115Z,99.99
2018-07-05T05:49:49.151Z,99.99
2018-07-05T05:50:49.210Z,99.99
2018-07-05T05:51:49.448Z,99.99
2018-07-05T05:52:49.283Z,99.99
2018-07-05T05:53:50.034Z,99.99
2018-07-05T05:54:49.339Z,99.99
2018-07-05T05:55:49.377Z,99.99
2018-07-05T05:56:49.433Z,99.99
2018-07-05T05:57:49.671Z,99.99
2018-07-05T05:58:49.707Z,99.99
2018-07-05T05:59:49.849Z,99.99
2018-07-05T06:01:49.669Z,99.99
2018-07-05T06:02:49.637Z,99.99
2018-07-05T06:03:49.677Z,99.99
2018-07-05T06:04:49.716Z,99.99
2018-07-05T06:05:49.751Z,99.99
2018-07-05T06:06:49.789Z,99.99
2018-07-05T06:07:49.826Z,99.99
2018-07-05T06:08:49.869Z,99.99
2018-07-05T06:09:49.901Z,99.99
2018-07-05T06:10:49.939Z,99.99
2018-07-05T06:11:49.976Z,99.99
2018-07-05T06:12:50.013Z,99.99
2018-07-05T06:13:50.052Z,99.99
2018-07-05T06:14:52.713Z,99.99
2018-07-05T06:15:50.129Z,99.99
2018-07-05T06:17:50.203Z,99.99
2018-07-05T06:18:50.240Z,99.99
2018-07-05T06:19:50.279Z,99.99
2018-07-05T06:20:50.316Z,99.99
2018-07-05T06:21:50.354Z,99.99
2018-07-05T06:22:50.392Z,99.99
2018-07-05T06:23:50.429Z,99.99
2018-07-05T06:24:50.467Z,99.99
2018-07-05T06:25:50.505Z,99.99
2018-07-05T06:26:50.543Z,99.99
2018-07-05T06:27:50.582Z,99.99
2018-07-05T06:28:50.620Z,99.99
2018-07-05T06:29:50.657Z,99.99
2018-07-05T06:30:50.695Z,99.99
2018-07-05T06:31:50.751Z,99.99
2018-07-05T06:32:50.774Z,99.99
2018-07-05T06:33:50.810Z,99.99
2018-07-05T06:34:50.846Z,99.99
2018-07-05T06:35:50.885Z,99.99
2018-07-05T06:36:50.923Z,99.99
2018-07-05T06:37:50.961Z,99.99
2018-07-05T06:38:51.000Z,99.99
2018-07-05T06:39:51.040Z,99.99
2018-07-05T06:40:51.076Z,99.99
2018-07-05T06:41:51.117Z,99.99
2018-07-05T06:42:51.151Z,99.99
2018-07-05T06:43:51.191Z,99.99
2018-07-05T06:44:51.229Z,99.99
2018-07-05T06:45:51.266Z,99.99
2018-07-05T06:46:51.305Z,99.99
2018-07-05T06:47:51.344Z,99.99
2018-07-05T06:48:51.381Z,99.99
2018-07-05T06:49:51.418Z,99.99
2018-07-05T06:50:51.457Z,99.99
2018-07-05T06:51:51.496Z,99.99
2018-07-05T06:52:51.534Z,99.99
2018-07-05T06:53:51.572Z,99.99
2018-07-05T06:54:51.609Z,99.99
2018-07-05T06:55:51.649Z,99.99
2018-07-05T06:56:51.690Z,99.99
2018-07-05T06:57:51.739Z,99.99
2018-07-05T06:58:51.762Z,99.99
2018-07-05T06:59:51.820Z,99.99
2018-07-05T07:00:51.839Z,99.99
2018-07-05T07:01:51.898Z,99.99
2018-07-05T07:02:51.920Z,99.99
2018-07-05T07:03:51.955Z,99.99
2018-07-05T07:05:52.034Z,99.99
2018-07-05T07:06:52.092Z,99.99
2018-07-05T07:07:52.531Z,99.99
2018-07-05T07:08:52.145Z,99.99
2018-07-05T07:09:52.184Z,99.99
2018-07-05T07:10:52.239Z,99.99
2018-07-05T07:11:52.265Z,99.99
2018-07-05T07:12:52.319Z,99.69
2018-07-05T07:13:52.338Z,99.07
2018-07-05T07:14:52.377Z,98.92
2018-07-05T07:15:52.415Z,98.25
2018-07-05T07:17:52.492Z,99.55
2018-07-05T07:18:52.529Z,99.55
2018-07-05T07:19:52.571Z,99.99
2018-07-05T07:20:52.607Z,99.99
2018-07-05T07:21:52.646Z,99.99
2018-07-05T07:22:52.703Z,99.99
2018-07-05T07:23:52.724Z,99.99
2018-07-05T07:24:52.761Z,99.99
2018-07-05T07:25:52.800Z,99.99
2018-07-05T07:26:52.839Z,99.99
2018-07-05T07:27:52.877Z,99.99
2018-07-05T07:28:52.916Z,99.99
2018-07-05T07:29:52.956Z,99.99
2018-07-05T07:30:52.993Z,99.99
2018-07-05T07:31:53.047Z,99.99
2018-07-05T07:32:53.070Z,99.99
2018-07-05T07:33:53.435Z,99.99
2018-07-05T07:34:53.148Z,99.99
2018-07-05T07:35:53.188Z,99.99
2018-07-05T07:36:53.249Z,99.99
2018-07-05T07:37:53.264Z,99.99
2018-07-05T07:38:53.324Z,99.99
2018-07-05T07:39:53.342Z,99.99
2018-07-05T07:40:53.381Z,99.45
2018-07-05T07:42:53.459Z,99.31
2018-07-05T07:43:53.498Z,99.45
2018-07-05T07:44:53.535Z,99.55
2018-07-05T07:45:53.575Z,99.79
2018-07-05T07:46:53.614Z,98.73
2018-07-05T07:47:53.652Z,99.99
2018-07-05T07:48:53.691Z,99.99
2018-07-05T07:49:53.731Z,99.99
2018-07-05T07:50:53.770Z,99.99
2018-07-05T07:51:53.809Z,99.99
2018-07-05T07:52:53.847Z,99.50
2018-07-05T07:53:53.886Z,96.70
2018-07-05T07:54:53.926Z,96.80
2018-07-05T07:55:53.965Z,99.99
2018-07-05T07:56:54.003Z,99.99
2018-07-05T07:57:54.041Z,99.41
2018-07-05T07:58:54.084Z,98.39
2018-07-05T07:59:54.122Z,96.56
2018-07-05T08:00:54.160Z,96.56
2018-07-05T08:01:54.203Z,97.33
2018-07-05T08:02:54.240Z,96.46
2018-07-05T08:03:54.278Z,95.40
2018-07-05T08:04:54.317Z,92.88
2018-07-05T08:05:54.356Z,92.54
2018-07-05T08:06:54.395Z,93.02
2018-07-05T08:07:54.472Z,92.16
2018-07-05T08:08:54.475Z,91.48
2018-07-05T08:09:54.512Z,90.70
2018-07-05T08:10:54.552Z,90.22
2018-07-05T08:11:54.591Z,92.93
2018-07-05T08:12:54.630Z,92.25
2018-07-05T08:13:54.673Z,92.64
2018-07-05T08:14:54.713Z,94.04
2018-07-05T08:15:54.748Z,92.79
2018-07-05T08:16:54.787Z,94.24
2018-07-05T08:17:54.826Z,94.14
2018-07-05T08:18:54.866Z,93.75
2018-07-05T08:19:54.906Z,95.59
2018-07-05T08:20:54.943Z,95.30
2018-07-05T08:21:54.983Z,93.75
2018-07-05T08:22:55.023Z,92.98
2018-07-05T08:23:55.067Z,91.91
2018-07-05T08:24:55.100Z,91.09
2018-07-05T08:25:55.141Z,91.67
2018-07-05T08:26:55.181Z,91.67
2018-07-05T08:27:55.220Z,90.90
2018-07-05T08:28:55.262Z,90.22
2018-07-05T08:29:55.300Z,89.93
2018-07-05T08:30:55.340Z,91.77
2018-07-05T08:31:55.378Z,92.68
2018-07-05T08:32:55.417Z,90.22
2018-07-05T08:33:55.458Z,89.69
2018-07-05T08:34:55.500Z,88.53
2018-07-05T08:35:55.536Z,86.69
2018-07-05T08:36:55.613Z,89.29
2018-07-05T08:37:55.652Z,88.81
2018-07-05T08:38:55.655Z,86.88
2018-07-05T08:39:55.696Z,86.24
2018-07-05T08:40:55.735Z,85.96
2018-07-05T08:41:55.775Z,85.13
2018-07-05T08:42:55.815Z,84.93
2018-07-05T08:43:55.855Z,84.16
2018-07-05T08:44:55.907Z,84.64
2018-07-05T08:45:55.935Z,83.86
2018-07-05T08:46:55.976Z,83.33
2018-07-05T08:47:56.015Z,82.35
2018-07-05T08:48:56.055Z,82.26
2018-07-05T08:49:56.095Z,81.48
2018-07-05T08:50:56.136Z,81.68
2018-07-05T08:51:56.175Z,82.35
2018-07-05T08:52:56.218Z,82.26
2018-07-05T08:53:56.257Z,83.03
2018-07-05T08:54:56.318Z,83.72
2018-07-05T08:55:56.356Z,83.91
2018-07-05T08:56:57.001Z,83.13
2018-07-05T08:57:56.433Z,82.84
2018-07-05T08:58:56.475Z,82.26
2018-07-05T09:01:56.801Z,82.60
2018-07-05T09:03:56.659Z,83.58
2018-07-05T09:04:56.700Z,83.09
2018-07-05T09:06:56.780Z,82.12
2018-07-05T09:07:56.821Z,83.18
2018-07-05T09:08:56.863Z,83.09
2018-07-05T09:09:56.903Z,82.80
2018-07-05T09:10:56.943Z,82.90
2018-07-05T09:11:57.002Z,82.51
2018-07-05T09:12:57.024Z,83.00
2018-07-05T09:13:57.067Z,82.90
2018-07-05T09:14:57.105Z,82.47
2018-07-05T09:15:57.145Z,83.67
2018-07-05T09:16:57.185Z,83.18
2018-07-05T09:17:57.554Z,83.00
2018-07-05T09:18:57.267Z,82.60
2018-07-05T09:19:57.307Z,81.54
2018-07-05T09:20:57.348Z,80.96
2018-07-05T09:21:57.388Z,80.09
2018-07-05T09:22:57.433Z,80.87
2018-07-05T09:23:57.469Z,80.32
2018-07-05T09:24:57.508Z,80.42
2018-07-05T09:25:57.548Z,79.93
2018-07-05T09:26:57.593Z,80.13
2018-07-05T09:27:57.630Z,80.09
2018-07-05T09:28:57.670Z,81.64
2018-07-05T09:29:57.709Z,81.54
2018-07-05T09:30:57.750Z,81.73
2018-07-05T09:31:57.792Z,82.86
2018-07-05T09:32:57.831Z,83.05
2018-07-05T09:33:57.873Z,83.15
2018-07-05T09:34:57.912Z,83.15
2018-07-05T09:35:57.953Z,82.86
2018-07-05T09:36:57.994Z,82.47
2018-07-05T09:37:58.032Z,82.66
2018-07-05T09:38:58.074Z,83.73
2018-07-05T09:39:58.115Z,83.63
2018-07-05T09:40:58.154Z,83.83
2018-07-05T09:41:58.192Z,84.11
2018-07-05T09:42:58.233Z,84.21
2018-07-05T09:43:58.274Z,83.34
2018-07-05T09:44:58.314Z,83.44
2018-07-05T09:45:58.355Z,84.31
2018-07-05T09:46:58.401Z,84.01
2018-07-05T09:47:58.434Z,84.11
2018-07-05T09:48:58.474Z,83.44
2018-07-05T09:49:58.515Z,83.83
2018-07-05T09:50:58.555Z,83.38
2018-07-05T09:51:58.596Z,83.48
2018-07-05T09:52:58.635Z,83.86
2018-07-05T09:53:58.678Z,83.67
2018-07-05T09:54:58.716Z,83.38
2018-07-05T09:55:58.755Z,82.60
2018-07-05T09:56:58.795Z,82.41
2018-07-05T09:57:58.850Z,82.17
2018-07-05T09:58:58.875Z,82.84
2018-07-05T09:59:58.916Z,82.84
2018-07-05T10:00:58.956Z,83.09
2018-07-05T10:01:58.996Z,83.44
2018-07-05T10:02:59.036Z,83.92
2018-07-05T10:03:59.094Z,84.50
2018-07-05T10:04:59.117Z,84.31
2018-07-05T10:05:59.157Z,83.58
2018-07-05T10:06:59.197Z,83.58
2018-07-05T10:07:59.238Z,83.38
2018-07-05T10:08:59.278Z,83.38
2018-07-05T10:09:59.317Z,83.67
2018-07-05T10:10:59.358Z,85.03
2018-07-05T10:11:59.399Z,85.57
2018-07-05T10:12:59.491Z,85.28
2018-07-05T10:13:59.566Z,84.55
2018-07-05T10:14:59.522Z,84.79
2018-07-05T10:15:59.560Z,84.64
2018-07-05T10:16:59.601Z,84.83
2018-07-05T10:17:59.645Z,85.22
2018-07-05T10:18:59.682Z,85.90
2018-07-05T10:19:59.723Z,85.57
2018-07-05T10:20:59.762Z,85.76
2018-07-05T10:21:59.802Z,85.52
2018-07-05T10:22:59.844Z,86.01
2018-07-05T10:23:59.885Z,86.01
2018-07-05T10:24:59.924Z,86.88
2018-07-05T10:25:59.963Z,85.37
2018-07-05T10:27:00.057Z,86.20
2018-07-05T10:28:00.045Z,86.49
2018-07-05T10:29:00.085Z,85.66
2018-07-05T10:30:00.127Z,86.05
2018-07-05T10:31:00.167Z,86.20
2018-07-05T10:32:00.206Z,87.07
2018-07-05T10:33:00.321Z,88.19
2018-07-05T10:34:00.286Z,88.29
2018-07-05T10:35:00.326Z,88.77
2018-07-05T10:36:00.368Z,89.45
2018-07-05T10:37:00.406Z,89.15
2018-07-05T10:38:00.447Z,88.67
2018-07-05T10:39:00.489Z,88.87
2018-07-05T10:40:00.528Z,87.99
2018-07-05T10:41:00.566Z,88.13
2018-07-05T10:42:00.608Z,88.96
2018-07-05T10:43:00.648Z,88.43
2018-07-05T10:44:00.687Z,89.20
2018-07-05T10:45:00.727Z,88.33
2018-07-05T10:46:00.826Z,88.62
2018-07-05T10:47:00.807Z,89.88
2018-07-05T10:48:00.848Z,89.97
2018-07-05T10:49:00.885Z,90.07
2018-07-05T10:50:00.927Z,90.90
2018-07-05T10:51:00.967Z,90.70
2018-07-05T10:52:01.008Z,90.41
2018-07-05T10:53:01.046Z,90.36
2018-07-05T10:54:01.086Z,89.97
2018-07-05T10:55:01.131Z,91.33
2018-07-05T10:56:01.170Z,92.68
2018-07-05T10:57:01.215Z,92.49
2018-07-05T10:58:01.250Z,92.00
2018-07-05T10:59:01.287Z,92.93
2018-07-05T11:00:01.327Z,93.41
2018-07-05T11:01:01.390Z,93.60
2018-07-05T11:02:01.405Z,93.99
2018-07-05T11:03:01.447Z,93.41
2018-07-05T11:04:01.488Z,93.32
2018-07-05T11:06:03.487Z,94.96
2018-07-05T11:07:04.669Z,93.60
2018-07-05T11:32:05.351Z,91.72
2018-07-05T11:47:03.421Z,94.38
2018-07-05T11:48:03.253Z,95.54
2018-07-05T11:53:03.432Z,95.35
2018-07-05T11:55:03.511Z,96.07
2018-07-05T11:56:03.574Z,95.40
2018-07-05T11:57:03.610Z,97.23
2018-07-05T11:58:03.649Z,96.07
2018-07-05T11:59:04.096Z,95.88
2018-07-05T12:00:03.960Z,98.25
2018-07-05T12:01:03.769Z,98.83
2018-07-05T12:03:03.848Z,98.54
2018-07-05T12:05:04.131Z,98.54
2018-07-05T12:06:04.369Z,98.54
2018-07-05T12:08:04.446Z,99.07
2018-07-05T12:10:04.632Z,99.46
2018-07-05T12:11:05.055Z,99.55
2018-07-05T12:12:04.323Z,99.99
2018-07-05T12:15:04.322Z,99.65
2018-07-05T12:16:04.360Z,99.94
2018-07-05T12:18:04.440Z,99.99
2018-07-05T12:19:04.882Z,99.99
2018-07-05T12:20:04.721Z,99.99
2018-07-05T12:22:05.000Z,99.99
2018-07-05T12:23:04.838Z,99.99
2018-07-05T12:24:04.721Z,99.99
2018-07-05T12:26:05.465Z,99.99
2018-07-05T12:27:04.792Z,99.99
2018-07-05T12:28:05.034Z,99.99
2018-07-05T12:29:04.893Z,99.99
2018-07-05T12:30:04.914Z,99.99
2018-07-05T12:31:04.949Z,99.99
2018-07-05T12:33:05.029Z,99.99
2018-07-05T12:34:05.069Z,99.99
2018-07-05T12:35:05.090Z,99.99
2018-07-05T12:37:05.187Z,99.99
2018-07-05T12:38:05.213Z,99.99
2018-07-05T12:39:05.267Z,99.99
2018-07-05T12:40:05.284Z,99.99
2018-07-05T12:41:05.341Z,99.99
2018-07-05T12:42:05.362Z,99.99
2018-07-05T12:43:05.420Z,99.99
2018-07-05T12:44:05.442Z,99.99
2018-07-05T12:45:05.480Z,99.99
2018-07-05T12:46:05.518Z,99.99
2018-07-05T12:47:05.557Z,99.99
2018-07-05T12:48:05.599Z,99.99
2018-07-05T12:49:05.636Z,99.99
2018-07-05T12:50:05.694Z,99.99
2018-07-05T12:51:05.714Z,99.99
2018-07-05T12:52:05.754Z,99.99
2018-07-05T12:53:06.118Z,99.99
2018-07-05T12:54:05.831Z,99.99
2018-07-05T12:55:05.871Z,99.99
2018-07-05T12:56:05.931Z,99.79
2018-07-05T12:57:05.949Z,99.99
2018-07-05T12:58:05.989Z,99.65
2018-07-05T12:59:06.028Z,99.16
2018-07-05T13:00:06.067Z,98.49
2018-07-05T13:01:06.105Z,97.57
2018-07-05T13:02:06.144Z,97.38
2018-07-05T13:03:06.189Z,98.05
2018-07-05T13:04:06.474Z,96.65
2018-07-05T13:05:06.281Z,98.49
2018-07-05T13:06:06.303Z,98.49
2018-07-05T13:07:06.342Z,98.97
2018-07-05T13:08:06.708Z,98.58
2018-07-05T13:09:06.420Z,97.14
2018-07-05T13:11:06.498Z,98.00
2018-07-05T13:12:06.559Z,97.04
2018-07-05T13:13:06.578Z,97.81
2018-07-05T13:15:06.658Z,96.84
2018-07-05T13:16:06.698Z,96.36
2018-07-05T13:17:06.736Z,95.68
2018-07-05T13:19:06.816Z,99.94
2018-07-05T13:20:06.855Z,97.62
2018-07-05T13:21:06.913Z,98.00
2018-07-05T13:22:06.934Z,96.65
2018-07-05T13:23:06.973Z,96.65
2018-07-05T13:24:07.015Z,97.14
2018-07-05T13:25:07.052Z,96.65
2018-07-05T13:26:07.113Z,96.65
2018-07-05T13:27:07.154Z,96.99
2018-07-05T13:28:07.497Z,98.15
2018-07-05T13:29:07.537Z,98.68
2018-07-05T13:30:07.274Z,98.25
2018-07-05T13:31:07.293Z,97.23
2018-07-05T13:32:07.557Z,97.72
2018-07-05T13:34:07.432Z,96.31
2018-07-05T13:35:07.452Z,96.31
2018-07-05T13:36:07.514Z,97.13
2018-07-05T13:38:07.589Z,94.71
2018-07-05T13:40:07.673Z,96.84
2018-07-05T13:41:08.017Z,97.42
2018-07-05T13:42:07.749Z,98.44
2018-07-05T13:43:07.790Z,97.38
2018-07-05T13:44:08.034Z,96.60
2018-07-05T13:45:07.873Z,97.52
2018-07-05T13:46:07.909Z,98.54
2018-07-05T13:47:07.973Z,97.28
2018-07-05T13:48:07.991Z,97.23
2018-07-05T13:49:08.234Z,99.99
2018-07-05T13:51:08.330Z,99.89
2018-07-05T13:52:08.151Z,99.50
2018-07-05T13:53:11.426Z,99.99
2018-07-05T13:54:08.494Z,99.99
2018-07-05T13:55:08.878Z,99.99
2018-07-05T13:56:08.309Z,99.99
2018-07-05T13:59:08.427Z,99.99
2018-07-05T14:00:08.470Z,99.99
2018-07-05T14:01:08.509Z,99.99
2018-07-05T14:03:08.588Z,99.99
2018-07-05T14:04:08.830Z,99.99
2018-07-05T14:05:08.667Z,99.99
2018-07-05T14:06:08.703Z,99.99
2018-07-05T14:07:08.946Z,99.99
2018-07-05T14:08:08.768Z,99.99
2018-07-05T14:09:08.825Z,99.99
2018-07-05T14:10:08.846Z,99.99
2018-07-05T14:11:08.883Z,99.99
2018-07-05T14:12:08.924Z,99.99
2018-07-05T14:13:08.961Z,99.99
2018-07-05T14:14:09.003Z,99.99
2018-07-05T14:15:09.043Z,99.99
2018-07-05T14:16:09.100Z,99.99
2018-07-05T14:17:09.340Z,99.99
2018-07-05T14:18:09.187Z,99.45
2018-07-05T14:19:09.198Z,99.99
2018-07-05T14:20:09.236Z,99.99
2018-07-05T14:21:09.277Z,99.60